Terminal Aerodrome Forecast
Issued by NWS Knoxville/Tri Cities, TN

Home | Current Version | Previous Version | Text Only | Print | Product List | Glossary On
Versions: 1 2 3 4 5 6 7 8 9 10 11 12 13 14 15 16 17 18 19 20 21 22 23 24 25 26 27 28
180
FTUS44 KMRX 141123
TAFTRI
TAF
KTRI 141123Z 1412/1512 26008KT P6SM SCT250
     FM141400 27007KT P6SM SCT025 BKN040
      TEMPO 1415/1418 BKN025 OVC040
     FM142100 30005KT P6SM SCT050 BKN250
     FM150100 VRB03KT P6SM SCT070 BKN150=

USA.gov is the U.S. government's official web portal to all federal, state and local government web resources and services.